sensor_id;sensor_type;location;lat;lon;timestamp;P1;durP1;ratioP1;P2;durP2;ratioP2
49840;SDS011;35738;49.890;5.930;2023-02-20T00:01:51;14.80;;;6.63;;
49840;SDS011;35738;49.890;5.930;2023-02-20T00:04:17;14.87;;;6.50;;
49840;SDS011;35738;49.890;5.930;2023-02-20T00:06:44;15.37;;;6.73;;
49840;SDS011;35738;49.890;5.930;2023-02-20T00:09:10;11.90;;;6.40;;
49840;SDS011;35738;49.890;5.930;2023-02-20T00:11:37;13.97;;;7.27;;
49840;SDS011;35738;49.890;5.930;2023-02-20T00:14:03;14.90;;;6.37;;
49840;SDS011;35738;49.890;5.930;2023-02-20T00:16:30;12.93;;;6.53;;
49840;SDS011;35738;49.890;5.930;2023-02-20T00:18:56;10.97;;;6.93;;
49840;SDS011;35738;49.890;5.930;2023-02-20T00:21:22;14.97;;;5.73;;
49840;SDS011;35738;49.890;5.930;2023-02-20T00:23:49;11.80;;;5.93;;
49840;SDS011;35738;49.890;5.930;2023-02-20T00:26:15;19.43;;;6.30;;
49840;SDS011;35738;49.890;5.930;2023-02-20T00:28:42;15.23;;;6.40;;
49840;SDS011;35738;49.890;5.930;2023-02-20T00:31:11;14.27;;;6.03;;
49840;SDS011;35738;49.890;5.930;2023-02-20T00:33:37;17.23;;;6.37;;
49840;SDS011;35738;49.890;5.930;2023-02-20T00:36:05;11.87;;;5.93;;
49840;SDS011;35738;49.890;5.930;2023-02-20T00:38:31;13.93;;;6.30;;
49840;SDS011;35738;49.890;5.930;2023-02-20T00:40:58;17.37;;;6.77;;
49840;SDS011;35738;49.890;5.930;2023-02-20T00:43:24;15.43;;;6.87;;
49840;SDS011;35738;49.890;5.930;2023-02-20T00:45:50;13.13;;;6.57;;
49840;SDS011;35738;49.890;5.930;2023-02-20T00:48:17;17.53;;;6.63;;
49840;SDS011;35738;49.890;5.930;2023-02-20T00:50:43;14.67;;;7.67;;
49840;SDS011;35738;49.890;5.930;2023-02-20T00:53:09;15.57;;;7.37;;
49840;SDS011;35738;49.890;5.930;2023-02-20T00:55:36;15.17;;;7.17;;
49840;SDS011;35738;49.890;5.930;2023-02-20T00:58:02;17.13;;;6.97;;
49840;SDS011;35738;49.890;5.930;2023-02-20T01:00:29;21.63;;;7.73;;
49840;SDS011;35738;49.890;5.930;2023-02-20T01:02:55;18.07;;;7.70;;
49840;SDS011;35738;49.890;5.930;2023-02-20T01:05:22;15.07;;;7.90;;
49840;SDS011;35738;49.890;5.930;2023-02-20T01:07:49;18.27;;;8.27;;
49840;SDS011;35738;49.890;5.930;2023-02-20T01:10:15;16.40;;;7.93;;
49840;SDS011;35738;49.890;5.930;2023-02-20T01:12:42;22.87;;;8.43;;
49840;SDS011;35738;49.890;5.930;2023-02-20T01:15:10;22.37;;;8.30;;
49840;SDS011;35738;49.890;5.930;2023-02-20T01:17:36;24.63;;;8.83;;
49840;SDS011;35738;49.890;5.930;2023-02-20T01:20:02;19.13;;;8.57;;
49840;SDS011;35738;49.890;5.930;2023-02-20T01:22:29;20.23;;;8.50;;
49840;SDS011;35738;49.890;5.930;2023-02-20T01:24:55;22.50;;;9.10;;
49840;SDS011;35738;49.890;5.930;2023-02-20T01:27:22;20.77;;;8.47;;
49840;SDS011;35738;49.890;5.930;2023-02-20T01:29:48;22.27;;;8.83;;
49840;SDS011;35738;49.890;5.930;2023-02-20T01:32:14;21.20;;;8.60;;
49840;SDS011;35738;49.890;5.930;2023-02-20T01:34:41;20.20;;;8.17;;
49840;SDS011;35738;49.890;5.930;2023-02-20T01:37:09;18.70;;;7.80;;
49840;SDS011;35738;49.890;5.930;2023-02-20T01:39:35;22.97;;;7.43;;
49840;SDS011;35738;49.890;5.930;2023-02-20T01:42:02;23.57;;;7.90;;
49840;SDS011;35738;49.890;5.930;2023-02-20T01:44:34;19.77;;;7.83;;
49840;SDS011;35738;49.890;5.930;2023-02-20T01:47:07;18.80;;;7.17;;
49840;SDS011;35738;49.890;5.930;2023-02-20T01:49:47;17.10;;;6.97;;
49840;SDS011;35738;49.890;5.930;2023-02-20T01:54:41;16.43;;;7.13;;
49840;SDS011;35738;49.890;5.930;2023-02-20T01:57:10;17.30;;;6.90;;
49840;SDS011;35738;49.890;5.930;2023-02-20T01:59:38;15.03;;;6.67;;
49840;SDS011;35738;49.890;5.930;2023-02-20T02:02:06;13.53;;;6.60;;
49840;SDS011;35738;49.890;5.930;2023-02-20T02:04:33;14.63;;;6.83;;
49840;SDS011;35738;49.890;5.930;2023-02-20T02:07:01;15.77;;;6.97;;
49840;SDS011;35738;49.890;5.930;2023-02-20T02:09:31;16.03;;;6.53;;
49840;SDS011;35738;49.890;5.930;2023-02-20T02:11:59;17.00;;;6.53;;
49840;SDS011;35738;49.890;5.930;2023-02-20T02:14:25;12.90;;;6.70;;
49840;SDS011;35738;49.890;5.930;2023-02-20T02:38:16;18.53;;;6.47;;
49840;SDS011;35738;49.890;5.930;2023-02-20T02:40:47;17.70;;;6.57;;
49840;SDS011;35738;49.890;5.930;2023-02-20T02:43:22;14.57;;;6.30;;
49840;SDS011;35738;49.890;5.930;2023-02-20T02:45:53;14.57;;;6.33;;
49840;SDS011;35738;49.890;5.930;2023-02-20T02:51:25;15.50;;;7.37;;
49840;SDS011;35738;49.890;5.930;2023-02-20T02:54:09;19.30;;;8.13;;
49840;SDS011;35738;49.890;5.930;2023-02-20T02:56:38;17.93;;;7.73;;
49840;SDS011;35738;49.890;5.930;2023-02-20T02:59:04;22.93;;;8.53;;
49840;SDS011;35738;49.890;5.930;2023-02-20T03:01:33;16.70;;;7.87;;
49840;SDS011;35738;49.890;5.930;2023-02-20T03:04:01;27.70;;;8.97;;
49840;SDS011;35738;49.890;5.930;2023-02-20T03:06:30;26.40;;;9.83;;
49840;SDS011;35738;49.890;5.930;2023-02-20T03:09:05;22.37;;;9.17;;
49840;SDS011;35738;49.890;5.930;2023-02-20T03:11:32;22.30;;;9.87;;
49840;SDS011;35738;49.890;5.930;2023-02-20T03:19:18;24.03;;;10.53;;
49840;SDS011;35738;49.890;5.930;2023-02-20T03:21:47;28.73;;;12.70;;
49840;SDS011;35738;49.890;5.930;2023-02-20T03:24:13;23.50;;;11.65;;
49840;SDS011;35738;49.890;5.930;2023-02-20T03:26:40;25.97;;;11.60;;
49840;SDS011;35738;49.890;5.930;2023-02-20T03:29:10;27.97;;;11.00;;
49840;SDS011;35738;49.890;5.930;2023-02-20T03:34:08;26.23;;;11.40;;
49840;SDS011;35738;49.890;5.930;2023-02-20T03:37:16;30.00;;;12.00;;
49840;SDS011;35738;49.890;5.930;2023-02-20T03:40:00;24.73;;;11.03;;
49840;SDS011;35738;49.890;5.930;2023-02-20T03:42:47;23.03;;;11.37;;
49840;SDS011;35738;49.890;5.930;2023-02-20T03:45:33;27.13;;;11.43;;
49840;SDS011;35738;49.890;5.930;2023-02-20T03:48:02;23.90;;;11.13;;
49840;SDS011;35738;49.890;5.930;2023-02-20T03:50:31;22.77;;;11.83;;
49840;SDS011;35738;49.890;5.930;2023-02-20T03:52:58;24.33;;;11.57;;
49840;SDS011;35738;49.890;5.930;2023-02-20T03:55:24;23.63;;;11.70;;
49840;SDS011;35738;49.890;5.930;2023-02-20T03:57:51;25.00;;;11.40;;
49840;SDS011;35738;49.890;5.930;2023-02-20T04:00:20;33.40;;;12.70;;
49840;SDS011;35738;49.890;5.930;2023-02-20T04:02:47;31.35;;;12.30;;
49840;SDS011;35738;49.890;5.930;2023-02-20T04:05:17;30.38;;;13.13;;
49840;SDS011;35738;49.890;5.930;2023-02-20T04:07:52;23.70;;;13.07;;
49840;SDS011;35738;49.890;5.930;2023-02-20T04:10:24;30.88;;;13.10;;
49840;SDS011;35738;49.890;5.930;2023-02-20T04:12:51;29.80;;;13.35;;
49840;SDS011;35738;49.890;5.930;2023-02-20T04:15:18;29.15;;;15.05;;
49840;SDS011;35738;49.890;5.930;2023-02-20T04:17:56;29.23;;;14.03;;
49840;SDS011;35738;49.890;5.930;2023-02-20T04:20:23;31.88;;;12.95;;
49840;SDS011;35738;49.890;5.930;2023-02-20T04:22:50;30.65;;;14.27;;
49840;SDS011;35738;49.890;5.930;2023-02-20T04:27:44;31.23;;;13.50;;
49840;SDS011;35738;49.890;5.930;2023-02-20T04:30:10;29.13;;;14.10;;
49840;SDS011;35738;49.890;5.930;2023-02-20T04:32:37;27.93;;;12.93;;
49840;SDS011;35738;49.890;5.930;2023-02-20T04:35:03;29.17;;;11.50;;
49840;SDS011;35738;49.890;5.930;2023-02-20T04:37:30;23.27;;;12.13;;
49840;SDS011;35738;49.890;5.930;2023-02-20T04:39:56;24.60;;;10.93;;
49840;SDS011;35738;49.890;5.930;2023-02-20T04:42:22;20.93;;;10.27;;
49840;SDS011;35738;49.890;5.930;2023-02-20T04:44:49;24.73;;;11.53;;
49840;SDS011;35738;49.890;5.930;2023-02-20T04:47:16;20.70;;;10.60;;
49840;SDS011;35738;49.890;5.930;2023-02-20T04:49:42;21.07;;;11.10;;
49840;SDS011;35738;49.890;5.930;2023-02-20T04:52:09;23.47;;;10.93;;
49840;SDS011;35738;49.890;5.930;2023-02-20T04:54:35;21.70;;;10.93;;
49840;SDS011;35738;49.890;5.930;2023-02-20T04:57:01;24.20;;;10.50;;
49840;SDS011;35738;49.890;5.930;2023-02-20T04:59:28;21.80;;;10.30;;
49840;SDS011;35738;49.890;5.930;2023-02-20T05:01:54;21.63;;;10.00;;
49840;SDS011;35738;49.890;5.930;2023-02-20T05:04:21;26.40;;;10.70;;
49840;SDS011;35738;49.890;5.930;2023-02-20T05:06:49;19.23;;;10.27;;
49840;SDS011;35738;49.890;5.930;2023-02-20T05:09:15;18.38;;;9.70;;
49840;SDS011;35738;49.890;5.930;2023-02-20T05:11:42;23.03;;;10.67;;
49840;SDS011;35738;49.890;5.930;2023-02-20T05:14:08;21.23;;;9.73;;
49840;SDS011;35738;49.890;5.930;2023-02-20T05:16:36;22.00;;;10.50;;
49840;SDS011;35738;49.890;5.930;2023-02-20T05:19:02;18.80;;;10.00;;
49840;SDS011;35738;49.890;5.930;2023-02-20T05:21:28;23.43;;;10.93;;
49840;SDS011;35738;49.890;5.930;2023-02-20T05:24:13;24.33;;;10.50;;
49840;SDS011;35738;49.890;5.930;2023-02-20T05:26:40;25.63;;;10.10;;
49840;SDS011;35738;49.890;5.930;2023-02-20T05:29:06;23.20;;;10.77;;
49840;SDS011;35738;49.890;5.930;2023-02-20T05:31:35;20.20;;;9.87;;
49840;SDS011;35738;49.890;5.930;2023-02-20T05:34:01;25.97;;;11.00;;
49840;SDS011;35738;49.890;5.930;2023-02-20T05:36:27;24.50;;;11.17;;
49840;SDS011;35738;49.890;5.930;2023-02-20T05:38:54;23.77;;;10.60;;
49840;SDS011;35738;49.890;5.930;2023-02-20T05:41:20;27.87;;;11.40;;
49840;SDS011;35738;49.890;5.930;2023-02-20T05:43:47;25.60;;;10.40;;
49840;SDS011;35738;49.890;5.930;2023-02-20T05:46:14;26.90;;;10.70;;
49840;SDS011;35738;49.890;5.930;2023-02-20T05:48:41;22.47;;;10.37;;
49840;SDS011;35738;49.890;5.930;2023-02-20T05:51:07;33.37;;;11.27;;
49840;SDS011;35738;49.890;5.930;2023-02-20T05:53:34;29.73;;;11.80;;
49840;SDS011;35738;49.890;5.930;2023-02-20T05:56:00;23.33;;;12.07;;
49840;SDS011;35738;49.890;5.930;2023-02-20T05:58:28;25.60;;;11.37;;
49840;SDS011;35738;49.890;5.930;2023-02-20T06:00:55;24.97;;;11.30;;
49840;SDS011;35738;49.890;5.930;2023-02-20T06:03:21;27.73;;;12.47;;
49840;SDS011;35738;49.890;5.930;2023-02-20T06:05:47;23.93;;;11.27;;
49840;SDS011;35738;49.890;5.930;2023-02-20T06:08:14;24.63;;;11.43;;
49840;SDS011;35738;49.890;5.930;2023-02-20T06:10:40;29.20;;;11.83;;
49840;SDS011;35738;49.890;5.930;2023-02-20T06:13:06;27.52;;;11.63;;
49840;SDS011;35738;49.890;5.930;2023-02-20T06:15:33;18.00;;;10.32;;
49840;SDS011;35738;49.890;5.930;2023-02-20T06:17:59;20.60;;;10.47;;
49840;SDS011;35738;49.890;5.930;2023-02-20T06:20:25;20.13;;;9.77;;
49840;SDS011;35738;49.890;5.930;2023-02-20T06:22:52;19.50;;;10.27;;
49840;SDS011;35738;49.890;5.930;2023-02-20T06:25:18;25.00;;;10.20;;
49840;SDS011;35738;49.890;5.930;2023-02-20T06:27:44;20.93;;;10.50;;
49840;SDS011;35738;49.890;5.930;2023-02-20T06:30:11;26.07;;;11.00;;
49840;SDS011;35738;49.890;5.930;2023-02-20T06:32:37;20.90;;;10.50;;
49840;SDS011;35738;49.890;5.930;2023-02-20T06:35:04;20.97;;;9.80;;
49840;SDS011;35738;49.890;5.930;2023-02-20T06:37:30;25.90;;;9.70;;
49840;SDS011;35738;49.890;5.930;2023-02-20T06:39:57;22.00;;;9.30;;
49840;SDS011;35738;49.890;5.930;2023-02-20T06:42:23;21.53;;;10.47;;
49840;SDS011;35738;49.890;5.930;2023-02-20T06:44:49;21.67;;;10.47;;
49840;SDS011;35738;49.890;5.930;2023-02-20T06:47:16;22.93;;;9.43;;
49840;SDS011;35738;49.890;5.930;2023-02-20T06:49:42;22.10;;;10.07;;
49840;SDS011;35738;49.890;5.930;2023-02-20T06:52:09;19.47;;;9.77;;
49840;SDS011;35738;49.890;5.930;2023-02-20T06:54:35;23.70;;;9.90;;
49840;SDS011;35738;49.890;5.930;2023-02-20T06:57:02;21.93;;;9.77;;
49840;SDS011;35738;49.890;5.930;2023-02-20T06:59:28;25.07;;;10.47;;
49840;SDS011;35738;49.890;5.930;2023-02-20T07:01:54;25.90;;;10.57;;
49840;SDS011;35738;49.890;5.930;2023-02-20T07:04:24;30.07;;;10.33;;
49840;SDS011;35738;49.890;5.930;2023-02-20T07:06:53;34.20;;;11.33;;
49840;SDS011;35738;49.890;5.930;2023-02-20T07:09:19;34.60;;;11.23;;
49840;SDS011;35738;49.890;5.930;2023-02-20T07:11:46;31.73;;;11.93;;
49840;SDS011;35738;49.890;5.930;2023-02-20T07:14:13;33.00;;;12.23;;
49840;SDS011;35738;49.890;5.930;2023-02-20T07:16:40;33.20;;;12.73;;
49840;SDS011;35738;49.890;5.930;2023-02-20T07:19:06;39.63;;;13.43;;
49840;SDS011;35738;49.890;5.930;2023-02-20T07:21:33;32.70;;;12.17;;
49840;SDS011;35738;49.890;5.930;2023-02-20T07:23:59;38.50;;;14.07;;
49840;SDS011;35738;49.890;5.930;2023-02-20T07:26:26;36.23;;;15.30;;
49840;SDS011;35738;49.890;5.930;2023-02-20T07:28:53;37.97;;;13.43;;
49840;SDS011;35738;49.890;5.930;2023-02-20T07:31:20;32.00;;;13.63;;
49840;SDS011;35738;49.890;5.930;2023-02-20T07:33:47;40.70;;;14.67;;
49840;SDS011;35738;49.890;5.930;2023-02-20T07:36:13;40.93;;;16.33;;
49840;SDS011;35738;49.890;5.930;2023-02-20T07:38:40;43.03;;;16.27;;
49840;SDS011;35738;49.890;5.930;2023-02-20T07:41:07;38.90;;;14.95;;
49840;SDS011;35738;49.890;5.930;2023-02-20T07:43:33;41.07;;;16.63;;
49840;SDS011;35738;49.890;5.930;2023-02-20T07:46:00;45.03;;;17.07;;
49840;SDS011;35738;49.890;5.930;2023-02-20T07:48:26;35.50;;;15.30;;
49840;SDS011;35738;49.890;5.930;2023-02-20T07:50:53;41.27;;;17.13;;
49840;SDS011;35738;49.890;5.930;2023-02-20T07:53:19;44.07;;;15.63;;
49840;SDS011;35738;49.890;5.930;2023-02-20T07:55:46;36.00;;;13.90;;
49840;SDS011;35738;49.890;5.930;2023-02-20T07:58:12;42.22;;;16.58;;
49840;SDS011;35738;49.890;5.930;2023-02-20T08:00:39;42.50;;;16.13;;
49840;SDS011;35738;49.890;5.930;2023-02-20T08:03:05;36.50;;;15.57;;
49840;SDS011;35738;49.890;5.930;2023-02-20T08:05:32;32.85;;;13.57;;
49840;SDS011;35738;49.890;5.930;2023-02-20T08:08:14;30.77;;;14.23;;
49840;SDS011;35738;49.890;5.930;2023-02-20T08:10:40;33.77;;;14.13;;
49840;SDS011;35738;49.890;5.930;2023-02-20T08:13:07;35.70;;;14.45;;
49840;SDS011;35738;49.890;5.930;2023-02-20T08:15:33;30.40;;;12.83;;
49840;SDS011;35738;49.890;5.930;2023-02-20T08:17:59;32.37;;;13.43;;
49840;SDS011;35738;49.890;5.930;2023-02-20T08:20:26;37.13;;;13.65;;
49840;SDS011;35738;49.890;5.930;2023-02-20T08:22:52;31.07;;;13.53;;
49840;SDS011;35738;49.890;5.930;2023-02-20T08:25:19;25.70;;;12.32;;
49840;SDS011;35738;49.890;5.930;2023-02-20T08:27:46;32.97;;;14.55;;
49840;SDS011;35738;49.890;5.930;2023-02-20T08:30:15;27.27;;;12.45;;
49840;SDS011;35738;49.890;5.930;2023-02-20T08:32:42;31.58;;;12.60;;
49840;SDS011;35738;49.890;5.930;2023-02-20T08:35:09;24.95;;;11.68;;
49840;SDS011;35738;49.890;5.930;2023-02-20T08:37:35;25.73;;;11.88;;
49840;SDS011;35738;49.890;5.930;2023-02-20T08:40:01;23.17;;;10.57;;
49840;SDS011;35738;49.890;5.930;2023-02-20T08:42:31;20.95;;;10.50;;
49840;SDS011;35738;49.890;5.930;2023-02-20T08:44:59;21.42;;;10.57;;
49840;SDS011;35738;49.890;5.930;2023-02-20T08:47:26;16.48;;;9.43;;
49840;SDS011;35738;49.890;5.930;2023-02-20T08:49:52;18.73;;;8.80;;
49840;SDS011;35738;49.890;5.930;2023-02-20T08:52:18;18.92;;;9.15;;
49840;SDS011;35738;49.890;5.930;2023-02-20T08:54:45;16.00;;;8.50;;
49840;SDS011;35738;49.890;5.930;2023-02-20T08:57:15;18.73;;;9.43;;
49840;SDS011;35738;49.890;5.930;2023-02-20T08:59:41;19.27;;;9.85;;
49840;SDS011;35738;49.890;5.930;2023-02-20T09:02:09;18.83;;;9.20;;
49840;SDS011;35738;49.890;5.930;2023-02-20T09:04:41;17.43;;;9.07;;
49840;SDS011;35738;49.890;5.930;2023-02-20T09:07:08;19.27;;;8.73;;
49840;SDS011;35738;49.890;5.930;2023-02-20T09:09:34;21.58;;;7.97;;
49840;SDS011;35738;49.890;5.930;2023-02-20T09:12:00;18.88;;;9.75;;
49840;SDS011;35738;49.890;5.930;2023-02-20T09:14:27;17.85;;;9.23;;
49840;SDS011;35738;49.890;5.930;2023-02-20T09:16:53;22.30;;;9.40;;
49840;SDS011;35738;49.890;5.930;2023-02-20T09:19:19;20.98;;;10.07;;
49840;SDS011;35738;49.890;5.930;2023-02-20T09:21:46;19.48;;;8.88;;
49840;SDS011;35738;49.890;5.930;2023-02-20T09:24:13;19.43;;;9.67;;
49840;SDS011;35738;49.890;5.930;2023-02-20T09:26:40;19.13;;;9.65;;
49840;SDS011;35738;49.890;5.930;2023-02-20T09:29:06;24.33;;;11.00;;
49840;SDS011;35738;49.890;5.930;2023-02-20T09:31:32;17.58;;;9.30;;
49840;SDS011;35738;49.890;5.930;2023-02-20T09:33:59;18.85;;;9.05;;
49840;SDS011;35738;49.890;5.930;2023-02-20T09:36:26;16.25;;;9.02;;
49840;SDS011;35738;49.890;5.930;2023-02-20T09:38:53;19.33;;;8.98;;
49840;SDS011;35738;49.890;5.930;2023-02-20T09:41:28;20.50;;;9.60;;
49840;SDS011;35738;49.890;5.930;2023-02-20T09:44:05;21.45;;;10.10;;
49840;SDS011;35738;49.890;5.930;2023-02-20T09:46:35;15.95;;;7.82;;
49840;SDS011;35738;49.890;5.930;2023-02-20T09:49:09;17.15;;;8.32;;
49840;SDS011;35738;49.890;5.930;2023-02-20T09:51:38;14.50;;;7.97;;
49840;SDS011;35738;49.890;5.930;2023-02-20T09:54:13;19.95;;;8.02;;
49840;SDS011;35738;49.890;5.930;2023-02-20T09:56:42;15.93;;;8.18;;
49840;SDS011;35738;49.890;5.930;2023-02-20T09:59:15;19.40;;;8.80;;
49840;SDS011;35738;49.890;5.930;2023-02-20T10:02:11;21.02;;;10.27;;
49840;SDS011;35738;49.890;5.930;2023-02-20T10:04:35;15.32;;;7.57;;
49840;SDS011;35738;49.890;5.930;2023-02-20T10:07:07;17.98;;;8.52;;
49840;SDS011;35738;49.890;5.930;2023-02-20T10:09:37;17.05;;;7.75;;
49840;SDS011;35738;49.890;5.930;2023-02-20T10:14:36;14.27;;;7.97;;
49840;SDS011;35738;49.890;5.930;2023-02-20T10:17:11;27.15;;;13.65;;
49840;SDS011;35738;49.890;5.930;2023-02-20T10:19:51;18.50;;;8.15;;
49840;SDS011;35738;49.890;5.930;2023-02-20T10:22:25;19.75;;;7.70;;
49840;SDS011;35738;49.890;5.930;2023-02-20T10:24:59;16.63;;;8.38;;
49840;SDS011;35738;49.890;5.930;2023-02-20T10:30:16;16.80;;;8.27;;
49840;SDS011;35738;49.890;5.930;2023-02-20T10:32:51;20.73;;;8.77;;
49840;SDS011;35738;49.890;5.930;2023-02-20T10:35:24;16.13;;;7.90;;
49840;SDS011;35738;49.890;5.930;2023-02-20T10:37:53;14.98;;;8.00;;
49840;SDS011;35738;49.890;5.930;2023-02-20T10:40:27;14.60;;;7.68;;
49840;SDS011;35738;49.890;5.930;2023-02-20T10:45:48;15.73;;;8.77;;
49840;SDS011;35738;49.890;5.930;2023-02-20T10:48:13;17.48;;;8.27;;
49840;SDS011;35738;49.890;5.930;2023-02-20T10:53:28;15.00;;;8.23;;
49840;SDS011;35738;49.890;5.930;2023-02-20T11:01:11;19.08;;;9.10;;
49840;SDS011;35738;49.890;5.930;2023-02-20T11:06:08;17.25;;;8.88;;
49840;SDS011;35738;49.890;5.930;2023-02-20T11:08:36;19.77;;;8.90;;
49840;SDS011;35738;49.890;5.930;2023-02-20T11:11:18;14.35;;;7.60;;
49840;SDS011;35738;49.890;5.930;2023-02-20T11:13:45;16.95;;;7.55;;
49840;SDS011;35738;49.890;5.930;2023-02-20T11:19:19;16.67;;;8.45;;
49840;SDS011;35738;49.890;5.930;2023-02-20T11:21:47;15.82;;;8.43;;
49840;SDS011;35738;49.890;5.930;2023-02-20T11:24:18;15.15;;;8.45;;
49840;SDS011;35738;49.890;5.930;2023-02-20T11:26:45;14.27;;;7.97;;
49840;SDS011;35738;49.890;5.930;2023-02-20T11:29:13;16.50;;;9.20;;
49840;SDS011;35738;49.890;5.930;2023-02-20T11:31:42;17.08;;;7.65;;
49840;SDS011;35738;49.890;5.930;2023-02-20T11:34:22;15.05;;;8.60;;
49840;SDS011;35738;49.890;5.930;2023-02-20T11:36:53;14.02;;;8.48;;
49840;SDS011;35738;49.890;5.930;2023-02-20T11:39:27;14.10;;;8.30;;
49840;SDS011;35738;49.890;5.930;2023-02-20T11:42:37;15.57;;;7.85;;
49840;SDS011;35738;49.890;5.930;2023-02-20T11:44:44;14.32;;;7.55;;
49840;SDS011;35738;49.890;5.930;2023-02-20T11:47:18;17.13;;;8.35;;
49840;SDS011;35738;49.890;5.930;2023-02-20T11:49:46;16.05;;;8.15;;
49840;SDS011;35738;49.890;5.930;2023-02-20T11:52:17;14.02;;;7.90;;
49840;SDS011;35738;49.890;5.930;2023-02-20T11:54:44;13.73;;;7.32;;
49840;SDS011;35738;49.890;5.930;2023-02-20T11:59:45;12.65;;;7.25;;
49840;SDS011;35738;49.890;5.930;2023-02-20T12:04:44;12.25;;;7.55;;
49840;SDS011;35738;49.890;5.930;2023-02-20T12:09:47;11.50;;;7.18;;
49840;SDS011;35738;49.890;5.930;2023-02-20T12:12:15;13.05;;;7.13;;
49840;SDS011;35738;49.890;5.930;2023-02-20T12:14:41;15.32;;;7.45;;
49840;SDS011;35738;49.890;5.930;2023-02-20T12:17:18;12.65;;;7.28;;
49840;SDS011;35738;49.890;5.930;2023-02-20T12:19:53;15.68;;;8.30;;
49840;SDS011;35738;49.890;5.930;2023-02-20T12:25:14;15.45;;;8.23;;
49840;SDS011;35738;49.890;5.930;2023-02-20T12:36:16;16.20;;;7.72;;
49840;SDS011;35738;49.890;5.930;2023-02-20T12:38:39;13.20;;;7.40;;
49840;SDS011;35738;49.890;5.930;2023-02-20T12:43:46;16.55;;;7.28;;
49840;SDS011;35738;49.890;5.930;2023-02-20T12:46:16;14.50;;;7.47;;
49840;SDS011;35738;49.890;5.930;2023-02-20T12:51:20;15.00;;;8.25;;
49840;SDS011;35738;49.890;5.930;2023-02-20T12:53:58;12.88;;;7.55;;
49840;SDS011;35738;49.890;5.930;2023-02-20T12:56:32;15.20;;;7.90;;
49840;SDS011;35738;49.890;5.930;2023-02-20T13:01:29;13.63;;;7.75;;
49840;SDS011;35738;49.890;5.930;2023-02-20T13:04:06;13.73;;;7.43;;
49840;SDS011;35738;49.890;5.930;2023-02-20T13:12:00;12.55;;;7.05;;
49840;SDS011;35738;49.890;5.930;2023-02-20T13:14:38;15.48;;;7.45;;
49840;SDS011;35738;49.890;5.930;2023-02-20T13:19:39;16.95;;;7.75;;
49840;SDS011;35738;49.890;5.930;2023-02-20T13:22:08;14.73;;;7.82;;
49840;SDS011;35738;49.890;5.930;2023-02-20T13:24:38;15.07;;;7.78;;
49840;SDS011;35738;49.890;5.930;2023-02-20T13:27:05;12.63;;;6.97;;
49840;SDS011;35738;49.890;5.930;2023-02-20T13:29:33;13.43;;;7.35;;
49840;SDS011;35738;49.890;5.930;2023-02-20T13:32:42;13.43;;;7.00;;
49840;SDS011;35738;49.890;5.930;2023-02-20T13:34:49;15.25;;;7.57;;
49840;SDS011;35738;49.890;5.930;2023-02-20T13:42:59;12.32;;;6.78;;
49840;SDS011;35738;49.890;5.930;2023-02-20T13:45:36;13.18;;;6.47;;
49840;SDS011;35738;49.890;5.930;2023-02-20T13:50:48;12.48;;;6.13;;
49840;SDS011;35738;49.890;5.930;2023-02-20T13:53:14;12.80;;;6.10;;
49840;SDS011;35738;49.890;5.930;2023-02-20T13:55:41;10.88;;;6.40;;
49840;SDS011;35738;49.890;5.930;2023-02-20T13:58:10;11.02;;;6.03;;
49840;SDS011;35738;49.890;5.930;2023-02-20T14:03:11;12.65;;;6.63;;
49840;SDS011;35738;49.890;5.930;2023-02-20T14:05:38;12.50;;;6.30;;
49840;SDS011;35738;49.890;5.930;2023-02-20T14:08:04;12.65;;;5.97;;
49840;SDS011;35738;49.890;5.930;2023-02-20T14:10:32;10.18;;;5.90;;
49840;SDS011;35738;49.890;5.930;2023-02-20T14:13:03;10.85;;;5.63;;
49840;SDS011;35738;49.890;5.930;2023-02-20T14:15:32;9.00;;;4.97;;
49840;SDS011;35738;49.890;5.930;2023-02-20T14:18:18;10.20;;;5.88;;
49840;SDS011;35738;49.890;5.930;2023-02-20T14:20:45;12.20;;;5.60;;
49840;SDS011;35738;49.890;5.930;2023-02-20T14:23:19;11.40;;;5.68;;
49840;SDS011;35738;49.890;5.930;2023-02-20T14:25:53;10.82;;;5.60;;
49840;SDS011;35738;49.890;5.930;2023-02-20T14:28:26;11.20;;;6.28;;
49840;SDS011;35738;49.890;5.930;2023-02-20T14:33:32;9.40;;;6.20;;
49840;SDS011;35738;49.890;5.930;2023-02-20T14:36:03;12.07;;;6.55;;
49840;SDS011;35738;49.890;5.930;2023-02-20T14:40:58;13.35;;;6.88;;
49840;SDS011;35738;49.890;5.930;2023-02-20T14:43:26;10.60;;;6.45;;
49840;SDS011;35738;49.890;5.930;2023-02-20T14:45:57;13.13;;;6.90;;
49840;SDS011;35738;49.890;5.930;2023-02-20T14:48:29;11.98;;;6.57;;
49840;SDS011;35738;49.890;5.930;2023-02-20T14:53:42;10.05;;;5.50;;
49840;SDS011;35738;49.890;5.930;2023-02-20T14:56:10;9.90;;;5.57;;
49840;SDS011;35738;49.890;5.930;2023-02-20T14:58:37;12.35;;;6.03;;
49840;SDS011;35738;49.890;5.930;2023-02-20T15:01:16;11.40;;;6.88;;
49840;SDS011;35738;49.890;5.930;2023-02-20T15:03:54;9.48;;;5.95;;
49840;SDS011;35738;49.890;5.930;2023-02-20T15:06:23;11.90;;;6.40;;
49840;SDS011;35738;49.890;5.930;2023-02-20T15:08:55;11.57;;;5.90;;
49840;SDS011;35738;49.890;5.930;2023-02-20T15:11:22;8.82;;;5.43;;
49840;SDS011;35738;49.890;5.930;2023-02-20T15:13:48;10.98;;;5.97;;
49840;SDS011;35738;49.890;5.930;2023-02-20T15:16:22;9.68;;;5.28;;
49840;SDS011;35738;49.890;5.930;2023-02-20T15:18:49;8.23;;;5.32;;
49840;SDS011;35738;49.890;5.930;2023-02-20T15:21:32;9.93;;;5.00;;
49840;SDS011;35738;49.890;5.930;2023-02-20T15:29:33;9.82;;;5.43;;
49840;SDS011;35738;49.890;5.930;2023-02-20T15:32:03;9.32;;;5.22;;
49840;SDS011;35738;49.890;5.930;2023-02-20T15:34:31;10.85;;;5.63;;
49840;SDS011;35738;49.890;5.930;2023-02-20T15:37:08;11.18;;;5.63;;
49840;SDS011;35738;49.890;5.930;2023-02-20T15:39:40;10.68;;;5.80;;
49840;SDS011;35738;49.890;5.930;2023-02-20T15:42:10;9.05;;;5.53;;
49840;SDS011;35738;49.890;5.930;2023-02-20T15:44:36;13.55;;;6.28;;
49840;SDS011;35738;49.890;5.930;2023-02-20T15:47:02;9.98;;;6.05;;
49840;SDS011;35738;49.890;5.930;2023-02-20T15:49:29;10.77;;;6.03;;
49840;SDS011;35738;49.890;5.930;2023-02-20T15:51:55;13.98;;;6.97;;
49840;SDS011;35738;49.890;5.930;2023-02-20T15:54:34;14.88;;;6.97;;
49840;SDS011;35738;49.890;5.930;2023-02-20T15:57:00;12.20;;;6.75;;
49840;SDS011;35738;49.890;5.930;2023-02-20T15:59:27;12.70;;;6.78;;
49840;SDS011;35738;49.890;5.930;2023-02-20T16:01:53;13.13;;;7.03;;
49840;SDS011;35738;49.890;5.930;2023-02-20T16:04:19;12.48;;;7.10;;
49840;SDS011;35738;49.890;5.930;2023-02-20T16:06:46;14.57;;;7.38;;
49840;SDS011;35738;49.890;5.930;2023-02-20T16:09:12;14.10;;;7.13;;
49840;SDS011;35738;49.890;5.930;2023-02-20T16:11:40;15.63;;;7.93;;
49840;SDS011;35738;49.890;5.930;2023-02-20T16:14:07;12.18;;;7.20;;
49840;SDS011;35738;49.890;5.930;2023-02-20T16:16:37;16.63;;;8.07;;
49840;SDS011;35738;49.890;5.930;2023-02-20T16:19:12;11.50;;;7.07;;
49840;SDS011;35738;49.890;5.930;2023-02-20T16:21:40;11.80;;;7.25;;
49840;SDS011;35738;49.890;5.930;2023-02-20T16:24:23;12.48;;;7.38;;
49840;SDS011;35738;49.890;5.930;2023-02-20T16:26:49;16.23;;;7.10;;
49840;SDS011;35738;49.890;5.930;2023-02-20T16:29:19;14.18;;;7.32;;
49840;SDS011;35738;49.890;5.930;2023-02-20T16:34:29;13.07;;;7.40;;
49840;SDS011;35738;49.890;5.930;2023-02-20T16:36:57;14.25;;;7.00;;
49840;SDS011;35738;49.890;5.930;2023-02-20T16:39:24;14.55;;;7.13;;
49840;SDS011;35738;49.890;5.930;2023-02-20T16:41:53;12.32;;;7.25;;